createdAt,value
2022-08-21T00:05:14.522Z,84.50
2022-08-21T00:10:49.944Z,84.52
2022-08-21T00:13:34.423Z,84.63
2022-08-21T00:19:09.669Z,84.74
2022-08-21T00:27:35.654Z,85.02
2022-08-21T00:33:10.891Z,84.80
2022-08-21T00:38:46.414Z,84.54
2022-08-21T00:44:21.772Z,84.27
2022-08-21T00:49:57.130Z,83.93
2022-08-21T00:55:32.618Z,83.72
2022-08-21T01:01:08.886Z,83.59
2022-08-21T01:06:44.204Z,83.60
2022-08-21T01:12:19.615Z,83.73
2022-08-21T01:15:04.247Z,83.80
2022-08-21T01:20:39.487Z,83.87
2022-08-21T01:23:24.018Z,83.83
2022-08-21T01:31:50.112Z,83.82
2022-08-21T01:34:34.578Z,83.70
2022-08-21T01:40:10.010Z,83.66
2022-08-21T01:42:54.665Z,83.62
2022-08-21T01:48:30.018Z,83.53
2022-08-21T01:54:05.456Z,83.25
2022-08-21T01:59:40.747Z,82.88
2022-08-21T02:05:16.048Z,82.90
2022-08-21T02:10:51.575Z,82.64
2022-08-21T02:13:36.607Z,82.55
2022-08-21T02:19:11.813Z,82.38
2022-08-21T02:24:53.794Z,81.89
2022-08-21T02:30:31.410Z,81.37
2022-08-21T02:33:15.866Z,81.19
2022-08-21T02:38:51.848Z,80.96
2022-08-21T02:44:34.326Z,80.81
2022-08-21T02:50:13.791Z,80.81
2022-08-21T02:52:59.195Z,80.80
2022-08-21T03:01:25.549Z,80.80
2022-08-21T03:04:10.076Z,80.76
2022-08-21T03:09:55.542Z,80.76
2022-08-21T03:15:32.111Z,81.06
2022-08-21T03:21:07.377Z,81.39
2022-08-21T03:26:42.746Z,81.75
2022-08-21T03:32:18.453Z,81.83
2022-08-21T03:35:02.917Z,81.92
2022-08-21T03:40:38.610Z,81.93
2022-08-21T03:43:23.201Z,81.99
2022-08-21T03:48:58.590Z,82.08
2022-08-21T03:54:33.945Z,82.40
2022-08-21T04:00:09.260Z,82.54
2022-08-21T04:05:44.527Z,82.73
2022-08-21T04:08:28.996Z,82.86
2022-08-21T04:14:04.257Z,82.95
2022-08-21T04:19:39.556Z,83.07
2022-08-21T04:25:20.915Z,83.54
2022-08-21T04:28:05.631Z,83.60
2022-08-21T04:33:41.284Z,83.62
2022-08-21T04:39:16.668Z,83.62
2022-08-21T04:42:04.157Z,83.63
2022-08-21T04:56:11.749Z,83.09
2022-08-21T05:04:39.814Z,82.64
2022-08-21T05:07:41.641Z,82.46
2022-08-21T05:13:10.996Z,82.20
2022-08-21T05:18:46.364Z,82.14
2022-08-21T05:24:21.652Z,81.73
2022-08-21T05:29:57.041Z,81.25
2022-08-21T05:38:23.040Z,80.73
2022-08-21T05:43:58.615Z,80.59
2022-08-21T05:49:34.150Z,80.41
2022-08-21T05:55:09.542Z,80.30
2022-08-21T05:57:54.090Z,80.10
2022-08-21T06:03:29.417Z,79.88
2022-08-21T06:09:04.914Z,79.70
2022-08-21T06:14:40.578Z,79.34
2022-08-21T06:20:17.196Z,79.14
2022-08-21T06:25:52.510Z,79.03
2022-08-21T06:28:41.011Z,78.94
2022-08-21T06:34:16.320Z,78.56
2022-08-21T06:39:51.585Z,78.23
2022-08-21T06:45:28.280Z,77.55
2022-08-21T06:48:21.152Z,77.32
2022-08-21T06:53:56.381Z,77.31
2022-08-21T06:59:34.855Z,76.58
2022-08-21T07:05:18.094Z,75.53
2022-08-21T07:13:45.321Z,74.24
2022-08-21T07:19:20.663Z,73.82
2022-08-21T07:24:56.115Z,73.25
2022-08-21T07:27:40.554Z,73.34
2022-08-21T07:33:15.847Z,73.14
2022-08-21T07:38:53.236Z,71.70
2022-08-21T07:44:28.509Z,70.05
2022-08-21T07:50:05.114Z,69.19
2022-08-21T07:55:40.667Z,68.50
2022-08-21T07:58:25.258Z,68.28
2022-08-21T08:04:01.079Z,67.70
2022-08-21T08:09:36.358Z,67.29
2022-08-21T08:15:11.844Z,67.04
2022-08-21T08:17:56.439Z,66.89
2022-08-21T08:23:31.804Z,65.33
2022-08-21T08:29:09.074Z,63.52
2022-08-21T08:34:44.469Z,60.04
2022-08-21T08:40:21.774Z,58.63
2022-08-21T08:45:58.045Z,58.51
2022-08-21T08:48:49.327Z,58.62
2022-08-21T08:54:31.548Z,57.88
2022-08-21T09:00:06.843Z,57.69
2022-08-21T09:05:43.760Z,57.62
2022-08-21T09:08:28.319Z,57.36
2022-08-21T09:11:13.059Z,56.94
2022-08-21T09:16:48.377Z,56.53
2022-08-21T09:19:34.757Z,56.44
2022-08-21T09:25:10.929Z,55.57
2022-08-21T09:27:55.517Z,55.79
2022-08-21T09:33:31.123Z,55.86
2022-08-21T09:39:07.257Z,55.43
2022-08-21T09:44:42.600Z,54.19
2022-08-21T09:50:18.044Z,53.64
2022-08-21T09:55:53.345Z,53.07
2022-08-21T09:58:37.830Z,45.81
2022-08-21T10:04:13.119Z,45.03
2022-08-21T10:09:48.459Z,45.18
2022-08-21T10:18:14.509Z,43.73
2022-08-21T10:23:49.903Z,44.21
2022-08-21T10:32:25.825Z,42.66
2022-08-21T10:38:02.353Z,41.77
2022-08-21T10:43:37.670Z,41.42
2022-08-21T10:49:13.004Z,41.15
2022-08-21T10:57:41.039Z,39.55
2022-08-21T11:00:25.666Z,39.89
2022-08-21T11:06:01.104Z,40.24
2022-08-21T11:08:47.644Z,39.80
2022-08-21T11:14:23.244Z,39.88
2022-08-21T11:19:58.559Z,40.11
2022-08-21T11:25:36.871Z,39.97
2022-08-21T11:28:21.627Z,40.23
2022-08-21T11:33:57.078Z,39.47
2022-08-21T11:39:32.598Z,39.56
2022-08-21T11:45:07.904Z,39.69
2022-08-21T11:47:53.976Z,39.93
2022-08-21T11:56:20.134Z,39.45
2022-08-21T11:59:04.677Z,39.54
2022-08-21T12:04:40.069Z,39.25
2022-08-21T12:10:15.503Z,38.84
2022-08-21T12:18:41.693Z,38.65
2022-08-21T12:24:17.064Z,38.66
2022-08-21T12:29:52.348Z,37.83
2022-08-21T12:35:29.837Z,37.44
2022-08-21T12:38:14.366Z,37.18
2022-08-21T12:43:49.661Z,36.19
2022-08-21T12:49:26.879Z,35.66
2022-08-21T12:55:02.329Z,34.39
2022-08-21T13:00:38.413Z,32.33
2022-08-21T13:06:13.701Z,33.80
2022-08-21T13:08:58.219Z,34.12
2022-08-21T13:14:33.516Z,34.33
2022-08-21T13:20:09.919Z,36.33
2022-08-21T13:25:45.234Z,37.84
2022-08-21T13:28:29.986Z,38.29
2022-08-21T13:34:05.173Z,39.55
2022-08-21T13:39:40.541Z,40.34
2022-08-21T13:45:15.874Z,40.17
2022-08-21T13:48:00.327Z,40.03
2022-08-21T13:53:38.568Z,40.02
2022-08-21T13:59:15.688Z,40.03
2022-08-21T14:04:53.359Z,40.24
2022-08-21T14:10:28.767Z,40.70
2022-08-21T14:16:04.077Z,40.47
2022-08-21T14:18:48.577Z,40.24
2022-08-21T14:24:23.953Z,40.64
2022-08-21T14:29:59.277Z,40.43
2022-08-21T14:35:34.624Z,40.83
2022-08-21T14:38:19.180Z,40.91
2022-08-21T14:44:04.347Z,40.88
2022-08-21T14:52:29.442Z,41.13
2022-08-21T14:58:04.686Z,40.50
2022-08-21T15:03:41.123Z,38.54
2022-08-21T15:09:16.438Z,37.65
2022-08-21T15:14:51.727Z,36.90
2022-08-21T15:20:27.003Z,33.49
2022-08-21T15:26:02.392Z,35.11
2022-08-21T15:28:47.231Z,34.97
2022-08-21T15:31:32.816Z,35.72
2022-08-21T15:37:08.117Z,37.20
2022-08-21T15:39:54.132Z,37.52
2022-08-21T15:45:30.047Z,30.96
2022-08-21T15:48:15.615Z,29.86
2022-08-21T15:53:51.085Z,27.62
2022-08-21T15:59:26.435Z,31.57
2022-08-21T16:05:01.760Z,27.78
2022-08-21T16:10:39.085Z,32.54
2022-08-21T16:16:16.670Z,34.79
2022-08-21T16:19:01.596Z,34.91
2022-08-21T16:24:37.807Z,36.00
2022-08-21T16:33:05.835Z,36.43
2022-08-21T16:38:41.559Z,36.79
2022-08-21T16:44:16.860Z,37.26
2022-08-21T16:49:52.250Z,37.61
2022-08-21T16:55:27.528Z,37.83
2022-08-21T16:58:12.066Z,38.17
2022-08-21T17:03:47.537Z,38.48
2022-08-21T17:09:22.809Z,39.37
2022-08-21T17:14:58.179Z,39.85
2022-08-21T17:20:33.434Z,40.44
2022-08-21T17:26:08.690Z,40.51
2022-08-21T17:31:48.083Z,41.16
2022-08-21T17:37:27.379Z,41.30
2022-08-21T17:40:17.074Z,41.63
2022-08-21T17:45:52.514Z,42.23
2022-08-21T17:48:37.063Z,42.54
2022-08-21T17:54:12.858Z,43.09
2022-08-21T17:59:55.168Z,43.72
2022-08-21T18:05:35.482Z,44.47
2022-08-21T18:08:20.322Z,44.96
2022-08-21T18:14:01.645Z,46.23
2022-08-21T18:28:16.393Z,48.47
2022-08-21T18:33:58.343Z,49.00
2022-08-21T18:39:37.567Z,50.34
2022-08-21T18:45:13.444Z,51.06
2022-08-21T18:50:50.755Z,51.41
2022-08-21T18:56:28.593Z,52.28
2022-08-21T18:59:13.361Z,52.91
2022-08-21T19:04:49.404Z,53.81
2022-08-21T19:10:28.559Z,54.36
2022-08-21T19:16:10.628Z,54.99
2022-08-21T19:19:00.714Z,55.34
2022-08-21T19:24:38.459Z,55.86
2022-08-21T19:30:13.786Z,57.19
2022-08-21T19:35:52.720Z,58.63
2022-08-21T19:38:38.637Z,59.04
2022-08-21T19:44:15.186Z,59.14
2022-08-21T19:49:50.611Z,59.50
2022-08-21T19:55:26.610Z,60.76
2022-08-21T19:58:12.210Z,60.89
2022-08-21T20:03:53.718Z,61.17
2022-08-21T20:09:35.329Z,62.84
2022-08-21T20:15:10.581Z,64.23
2022-08-21T20:20:45.795Z,64.78
2022-08-21T20:26:21.991Z,64.73
2022-08-21T20:29:07.272Z,64.67
2022-08-21T20:34:45.036Z,65.00
2022-08-21T20:40:20.991Z,65.94
2022-08-21T20:45:56.440Z,66.63
2022-08-21T20:48:49.380Z,67.02
2022-08-21T20:54:25.440Z,68.64
2022-08-21T21:00:01.098Z,71.55
2022-08-21T21:05:36.387Z,72.73
2022-08-21T21:08:22.157Z,73.41
2022-08-21T21:11:06.935Z,73.44
2022-08-21T21:16:42.240Z,73.31
2022-08-21T21:19:37.211Z,73.93
2022-08-21T21:25:12.706Z,74.23
2022-08-21T21:30:57.572Z,74.45
2022-08-21T21:36:32.316Z,74.34
2022-08-21T21:39:16.839Z,74.71
2022-08-21T21:44:52.649Z,75.03
2022-08-21T21:50:27.930Z,75.00
2022-08-21T21:56:03.160Z,75.23
2022-08-21T21:58:48.004Z,75.50
2022-08-21T22:04:23.555Z,76.13
2022-08-21T22:10:07.597Z,76.89
2022-08-21T22:15:51.912Z,77.33
2022-08-21T22:18:36.580Z,77.55
2022-08-21T22:24:22.068Z,78.21
2022-08-21T22:29:57.506Z,79.02
2022-08-21T22:41:14.334Z,80.01
2022-08-21T22:46:58.888Z,80.55
2022-08-21T22:49:44.037Z,80.58
2022-08-21T22:55:19.406Z,81.42
2022-08-21T22:58:12.888Z,81.88
2022-08-21T23:03:48.292Z,82.13
2022-08-21T23:09:24.089Z,82.85
2022-08-21T23:14:59.712Z,83.07
2022-08-21T23:20:37.500Z,83.76
2022-08-21T23:29:07.948Z,84.02
2022-08-21T23:34:43.245Z,84.15
2022-08-21T23:40:19.213Z,84.39
2022-08-21T23:45:54.554Z,84.46
2022-08-21T23:48:42.358Z,84.56
2022-08-21T23:54:17.903Z,84.75
2022-08-21T23:59:53.238Z,84.57
